Time;durP1;ratioP1;P1;durP2;ratioP2;P2;SDS_P1;SDS_P2;PMS_P1;PMS_P2;Temp;Humidity;BMP_temperature;BMP_pressure;BME280_temperature;BME280_humidity;BME280_pressure;Samples;Min_cycle;Max_cycle;Signal;HPM_P1;HPM_P2
2023/06/12 00:01:21;;;;;;;22.13;16.10;;;;;;;23.60;67.67;100940.06;7363341;19;20015;-63
2023/06/12 00:03:49;;;;;;;22.23;16.58;;;;;;;23.57;68.91;100946.72;7360763;19;20022;-62
2023/06/12 00:06:17;;;;;;;20.35;16.35;;;;;;;23.53;68.72;100947.44;7364791;19;20098;-62
2023/06/12 00:08:44;;;;;;;18.92;15.68;;;;;;;23.44;68.64;100944.25;7363056;19;20014;-62
2023/06/12 00:11:13;;;;;;;22.05;16.63;;;;;;;23.40;68.84;100937.72;7364368;19;20059;-63
2023/06/12 00:13:43;;;;;;;21.17;15.30;;;;;;;23.27;69.26;100938.75;7365724;19;20471;-62
2023/06/12 00:16:10;;;;;;;19.40;15.85;;;;;;;23.23;69.60;100932.22;7363588;19;20029;-62
2023/06/12 00:18:39;;;;;;;17.95;15.35;;;;;;;23.19;69.71;100939.13;7360831;19;20022;-61
2023/06/12 00:21:08;;;;;;;21.52;15.68;;;;;;;23.17;69.55;100932.34;7361611;19;20028;-62
2023/06/12 00:23:36;;;;;;;18.40;15.57;;;;;;;23.17;70.12;100922.41;7364437;19;20039;-63
2023/06/12 00:26:04;;;;;;;20.02;15.85;;;;;;;23.17;69.99;100925.09;7362868;19;20665;-62
2023/06/12 00:28:31;;;;;;;17.50;14.75;;;;;;;23.15;70.06;100926.41;7364453;19;20146;-61
2023/06/12 00:30:59;;;;;;;20.45;15.95;;;;;;;23.14;70.04;100925.59;7363027;19;20936;-61
2023/06/12 00:33:27;;;;;;;23.85;16.50;;;;;;;23.13;69.99;100934.69;7360711;19;20033;-62
2023/06/12 00:35:54;;;;;;;22.92;16.02;;;;;;;23.11;70.05;100934.09;7362782;19;21683;-61
2023/06/12 00:38:22;;;;;;;19.75;15.20;;;;;;;23.10;70.25;100929.78;7362129;19;20130;-62
2023/06/12 00:40:49;;;;;;;20.23;14.88;;;;;;;23.07;71.12;100930.22;7363277;19;20010;-62
2023/06/12 00:43:16;;;;;;;21.95;15.43;;;;;;;23.05;71.39;100924.28;7362439;19;20037;-63
2023/06/12 00:45:44;;;;;;;23.05;17.67;;;;;;;23.03;71.81;100923.69;7362836;19;20014;-62
2023/06/12 00:48:12;;;;;;;21.52;17.50;;;;;;;23.03;72.13;100918.31;7359909;19;20018;-61
2023/06/12 00:50:41;;;;;;;22.83;17.63;;;;;;;23.03;71.65;100923.69;7363198;19;20043;-61
2023/06/12 00:53:08;;;;;;;23.40;18.10;;;;;;;23.05;72.02;100918.94;7358439;19;20386;-62
2023/06/12 00:55:35;;;;;;;23.58;18.10;;;;;;;23.08;72.30;100920.31;7362285;19;21135;-63
2023/06/12 00:58:03;;;;;;;22.25;17.45;;;;;;;23.08;71.50;100933.72;7363811;19;20546;-62
2023/06/12 01:00:30;;;;;;;21.95;16.67;;;;;;;23.07;72.00;100937.47;7361683;19;20010;-62
2023/06/12 01:03:04;;;;;;;21.13;16.90;;;;;;;23.06;71.17;100936.66;7360804;19;20054;-62
2023/06/12 01:05:36;;;;;;;21.40;16.70;;;;;;;23.06;71.56;100935.84;7361927;19;20014;-62
2023/06/12 01:08:22;;;;;;;20.25;15.75;;;;;;;23.06;71.37;100943.91;7363131;19;20363;-61
2023/06/12 01:10:57;;;;;;;22.23;16.77;;;;;;;23.06;71.30;100943.91;7359871;19;20073;-61
2023/06/12 01:13:24;;;;;;;18.70;16.10;;;;;;;23.02;71.71;100951.59;7362536;19;20010;-63
2023/06/12 01:15:51;;;;;;;21.10;16.13;;;;;;;22.98;70.91;100939.69;7362074;19;20661;-61
2023/06/12 01:18:21;;;;;;;23.30;16.10;;;;;;;22.95;71.23;100946.34;7360963;19;20459;-61
2023/06/12 01:20:51;;;;;;;22.35;15.45;;;;;;;22.93;71.92;100931.50;7359179;19;20055;-63
2023/06/12 01:23:27;;;;;;;24.08;16.52;;;;;;;22.91;71.60;100937.09;7364362;19;20023;-61
2023/06/12 01:26:09;;;;;;;20.52;16.27;;;;;;;22.89;72.17;100941.06;7361237;19;20560;-63
2023/06/12 01:28:46;;;;;;;23.70;17.43;;;;;;;22.88;72.76;100940.25;7362143;19;20018;-61
2023/06/12 01:31:26;;;;;;;22.42;17.05;;;;;;;22.83;72.76;100947.38;7360951;19;20018;-61
2023/06/12 01:34:02;;;;;;;21.65;16.92;;;;;;;22.83;73.36;100942.81;7358693;19;21808;-62
2023/06/12 01:36:32;;;;;;;24.75;16.77;;;;;;;22.84;74.64;100935.59;7361664;19;20018;-62
2023/06/12 01:39:01;;;;;;;22.27;18.33;;;;;;;22.85;75.85;100945.28;7361493;19;20082;-61
2023/06/12 01:41:29;;;;;;;22.30;18.10;;;;;;;22.84;76.43;100949.81;7360936;19;21000;-62
2023/06/12 01:43:57;;;;;;;21.35;16.83;;;;;;;22.82;76.63;100948.41;7360257;19;20029;-62
2023/06/12 01:46:24;;;;;;;21.35;17.48;;;;;;;22.76;77.27;100941.25;7359279;19;20030;-62
2023/06/12 01:48:51;;;;;;;24.95;18.77;;;;;;;22.75;78.77;100947.72;7357627;19;20018;-61
2023/06/12 01:51:18;;;;;;;22.60;17.73;;;;;;;22.70;79.13;100940.31;7361081;19;20022;-62
2023/06/12 01:53:45;;;;;;;28.95;19.13;;;;;;;22.70;79.44;100944.88;7361355;19;21196;-61
2023/06/12 01:56:14;;;;;;;25.55;18.27;;;;;;;22.67;79.81;100947.97;7364612;19;20154;-62
2023/06/12 01:58:41;;;;;;;24.25;18.80;;;;;;;22.65;81.30;100947.41;7365126;19;20404;-62
2023/06/12 02:01:15;;;;;;;25.90;19.65;;;;;;;22.64;82.32;100949.28;7357957;19;20082;-62
2023/06/12 02:03:45;;;;;;;30.48;19.30;;;;;;;22.64;82.56;100945.78;7359507;19;21131;-62
2023/06/12 02:06:17;;;;;;;27.27;19.35;;;;;;;22.62;83.67;100943.31;7358926;19;20100;-62
2023/06/12 02:08:44;;;;;;;27.58;19.88;;;;;;;22.58;84.16;100958.22;7359897;19;20097;-62
2023/06/12 02:11:13;;;;;;;25.80;19.63;;;;;;;22.58;85.01;100953.69;7359954;19;20018;-62
2023/06/12 02:13:40;;;;;;;25.83;19.48;;;;;;;22.54;83.89;100954.38;7361611;19;20435;-62
2023/06/12 02:16:08;;;;;;;26.55;20.23;;;;;;;22.50;83.94;100945.94;7361029;19;21624;-66
2023/06/12 02:18:36;;;;;;;25.42;19.30;;;;;;;22.50;83.97;100954.00;7360595;19;20018;-62
2023/06/12 02:21:03;;;;;;;26.85;20.30;;;;;;;22.47;84.33;100957.16;7367137;19;20011;-61
2023/06/12 02:23:33;;;;;;;27.90;20.73;;;;;;;22.40;84.23;100967.13;7366440;19;20055;-61
2023/06/12 02:26:01;;;;;;;30.27;21.35;;;;;;;22.36;84.66;100960.59;7368319;19;20028;-63
2023/06/12 02:28:28;;;;;;;27.55;21.45;;;;;;;22.37;86.10;100959.56;7368036;19;20018;-61
2023/06/12 02:30:55;;;;;;;32.50;22.52;;;;;;;22.37;85.80;100964.09;7364177;19;20018;-62
2023/06/12 02:33:22;;;;;;;30.70;21.92;;;;;;;22.34;86.09;100954.66;7365557;19;20022;-62
2023/06/12 02:35:49;;;;;;;29.38;21.08;;;;;;;22.30;85.66;100952.66;7366621;19;20510;-62
2023/06/12 02:38:16;;;;;;;30.58;21.90;;;;;;;22.26;84.57;100954.94;7367173;19;20018;-62
2023/06/12 02:40:43;;;;;;;31.90;22.25;;;;;;;22.23;84.82;100943.88;7364799;19;20026;-64
2023/06/12 02:43:10;;;;;;;28.40;21.60;;;;;;;22.16;84.89;100944.75;7368017;19;20018;-61
2023/06/12 02:45:37;;;;;;;33.03;22.67;;;;;;;22.14;85.33;100940.69;7363997;19;20439;-62
2023/06/12 02:48:05;;;;;;;31.13;22.30;;;;;;;22.09;85.64;100935.19;7363099;19;20022;-61
2023/06/12 02:50:32;;;;;;;30.55;21.88;;;;;;;22.06;85.58;100925.72;7365903;19;20018;-63
2023/06/12 02:52:59;;;;;;;31.63;22.30;;;;;;;22.04;85.78;100924.31;7367829;19;20106;-62
2023/06/12 02:55:26;;;;;;;31.88;21.17;;;;;;;22.02;86.32;100926.41;7368221;19;20010;-62
2023/06/12 02:57:54;;;;;;;28.80;21.55;;;;;;;22.00;86.19;100926.63;7366711;19;20041;-64
2023/06/12 03:00:21;;;;;;;27.75;20.85;;;;;;;21.98;86.83;100919.84;7367629;19;20033;-62
2023/06/12 03:02:48;;;;;;;29.02;21.20;;;;;;;21.95;87.00;100910.41;7363711;19;20014;-60
2023/06/12 03:05:15;;;;;;;28.50;20.95;;;;;;;21.95;87.24;100906.88;7364307;19;20019;-62
2023/06/12 03:07:42;;;;;;;30.85;21.23;;;;;;;21.94;87.45;100907.97;7364928;19;20588;-63
2023/06/12 03:10:10;;;;;;;31.15;21.02;;;;;;;21.92;87.74;100916.19;7363969;19;20025;-61
2023/06/12 03:12:37;;;;;;;29.73;21.15;;;;;;;21.92;87.75;100920.72;7366318;19;20029;-62
2023/06/12 03:15:05;;;;;;;27.90;20.80;;;;;;;21.91;87.71;100913.72;7364970;19;20011;-62
2023/06/12 03:17:32;;;;;;;30.50;21.23;;;;;;;21.91;87.55;100903.81;7364157;19;20361;-61
2023/06/12 03:20:00;;;;;;;31.95;22.90;;;;;;;21.89;87.78;100902.44;7362015;19;20346;-61
2023/06/12 03:22:27;;;;;;;30.25;21.85;;;;;;;21.88;88.21;100903.47;7366637;19;20093;-62
2023/06/12 03:24:54;;;;;;;29.77;21.67;;;;;;;21.85;88.11;100911.94;7365333;19;20018;-61
2023/06/12 03:27:22;;;;;;;30.90;22.25;;;;;;;21.83;87.98;100909.50;7363260;19;20023;-62
2023/06/12 03:29:50;;;;;;;30.77;22.30;;;;;;;21.82;88.33;100907.84;7364100;19;20014;-62
2023/06/12 03:32:17;;;;;;;31.00;21.88;;;;;;;21.82;88.08;100901.69;7362096;19;20126;-62
2023/06/12 03:34:46;;;;;;;32.17;22.70;;;;;;;21.83;88.27;100906.81;7366326;19;20485;-63
2023/06/12 03:37:13;;;;;;;31.85;23.30;;;;;;;21.83;88.24;100903.31;7363416;19;20053;-62
2023/06/12 03:39:40;;;;;;;32.15;21.98;;;;;;;21.82;88.48;100907.03;7364708;19;20025;-60
2023/06/12 03:42:08;;;;;;;32.45;21.45;;;;;;;21.80;88.61;100904.56;7362270;19;20011;-62
2023/06/12 03:44:35;;;;;;;33.00;23.27;;;;;;;21.80;88.54;100903.75;7365735;19;21873;-63
2023/06/12 03:47:03;;;;;;;30.92;22.85;;;;;;;21.79;88.54;100915.53;7362357;19;20018;-63
2023/06/12 03:49:30;;;;;;;29.75;21.92;;;;;;;21.78;88.55;100917.38;7362173;19;20706;-62
2023/06/12 03:51:57;;;;;;;31.60;22.48;;;;;;;21.76;88.80;100914.94;7364810;19;20022;-62
2023/06/12 03:54:24;;;;;;;29.88;22.38;;;;;;;21.77;88.71;100910.38;7365556;19;20037;-62
2023/06/12 03:56:51;;;;;;;29.13;22.75;;;;;;;21.77;88.49;100915.75;7364846;19;20017;-61
2023/06/12 03:59:18;;;;;;;34.35;23.33;;;;;;;21.77;88.19;100910.38;7366421;19;20015;-62
2023/06/12 04:01:48;;;;;;;34.17;23.38;;;;;;;21.79;88.63;100915.53;7364742;19;20021;-62
2023/06/12 04:04:15;;;;;;;31.35;22.13;;;;;;;21.77;88.15;100911.22;7363258;19;20018;-62
2023/06/12 04:06:44;;;;;;;31.13;22.20;;;;;;;21.77;87.99;100910.38;7366054;19;20042;-62
2023/06/12 04:09:14;;;;;;;34.55;23.65;;;;;;;21.76;88.01;100920.28;7365341;19;20608;-65
2023/06/12 04:11:43;;;;;;;31.60;22.30;;;;;;;21.75;87.64;100913.28;7361490;19;20045;-61
2023/06/12 04:14:10;;;;;;;30.10;22.77;;;;;;;21.76;87.50;100911.44;7364181;19;20023;-61
2023/06/12 04:16:37;;;;;;;33.55;23.83;;;;;;;21.76;87.58;100920.28;7357935;19;20019;-62
2023/06/12 04:19:05;;;;;;;29.58;22.88;;;;;;;21.77;87.36;100918.44;7362657;19;20022;-62
2023/06/12 04:21:33;;;;;;;24.75;20.40;;;;;;;21.79;85.89;100920.88;7361729;19;20006;-61
2023/06/12 04:24:01;;;;;;;31.23;21.10;;;;;;;21.79;85.79;100921.69;7363419;19;20020;-61
2023/06/12 04:26:29;;;;;;;25.52;18.45;;;;;;;21.80;84.84;100920.66;7361485;19;20828;-62
2023/06/12 04:28:57;;;;;;;24.30;19.58;;;;;;;21.82;84.13;100918.56;7362069;19;20010;-63
2023/06/12 04:31:26;;;;;;;24.85;18.95;;;;;;;21.86;82.87;100924.28;7362085;19;20049;-61
2023/06/12 04:33:54;;;;;;;24.38;18.33;;;;;;;21.87;81.91;100926.75;7361804;19;20010;-62
2023/06/12 04:36:22;;;;;;;25.77;18.45;;;;;;;21.89;81.48;100923.88;7365311;19;20719;-62
2023/06/12 04:38:50;;;;;;;22.02;16.80;;;;;;;21.89;81.23;100921.97;7364813;19;20033;-62
2023/06/12 04:41:19;;;;;;;20.92;17.00;;;;;;;21.91;80.13;100921.75;7361931;19;20019;-61
2023/06/12 04:43:48;;;;;;;21.95;16.23;;;;;;;21.92;79.75;100928.75;7360396;19;20010;-61
2023/06/12 04:46:19;;;;;;;21.58;16.25;;;;;;;21.95;79.84;100931.00;7360882;19;20011;-60
2023/06/12 04:48:47;;;;;;;22.88;16.48;;;;;;;21.97;79.25;100934.28;7358876;19;20027;-62
2023/06/12 04:51:14;;;;;;;20.67;15.55;;;;;;;21.99;78.86;100935.69;7363928;19;20018;-62
2023/06/12 04:53:43;;;;;;;20.73;16.55;;;;;;;21.99;78.39;100937.59;7361726;19;20041;-62
2023/06/12 04:56:12;;;;;;;20.90;16.77;;;;;;;22.02;78.09;100931.75;7360951;19;20021;-61
2023/06/12 04:58:41;;;;;;;20.98;16.38;;;;;;;22.02;78.27;100929.91;7362328;19;20075;-62
2023/06/12 05:01:10;;;;;;;24.95;18.42;;;;;;;22.03;78.00;100936.91;7361689;19;20023;-62
2023/06/12 05:03:40;;;;;;;26.38;18.38;;;;;;;22.08;79.48;100933.53;7359370;19;20006;-63
2023/06/12 05:06:08;;;;;;;24.27;18.60;;;;;;;22.09;79.87;100940.56;7361901;19;20017;-62
2023/06/12 05:08:36;;;;;;;25.67;18.92;;;;;;;22.09;79.29;100943.22;7362562;19;21624;-65
2023/06/12 05:11:03;;;;;;;24.80;19.77;;;;;;;22.14;79.81;100944.19;7362261;19;21339;-62
2023/06/12 05:13:30;;;;;;;26.20;19.35;;;;;;;22.19;81.02;100946.19;7359519;19;20117;-62
2023/06/12 05:15:57;;;;;;;28.27;21.25;;;;;;;22.23;82.02;100943.88;7361287;19;20117;-61
2023/06/12 05:18:24;;;;;;;28.85;21.58;;;;;;;22.27;83.00;100945.03;7359922;19;20022;-62
2023/06/12 05:20:51;;;;;;;29.05;20.63;;;;;;;22.26;82.78;100946.91;7361143;19;20028;-63
2023/06/12 05:23:19;;;;;;;25.20;20.27;;;;;;;22.29;82.72;100953.69;7362654;19;20018;-63
2023/06/12 05:25:47;;;;;;;26.38;20.05;;;;;;;22.29;82.55;100953.69;7359617;19;20045;-61
2023/06/12 05:28:15;;;;;;;29.25;21.08;;;;;;;22.28;83.21;100942.16;7364090;19;20593;-62
2023/06/12 05:30:43;;;;;;;31.13;21.17;;;;;;;22.28;83.19;100955.56;7360560;19;21814;-62
2023/06/12 05:33:11;;;;;;;29.40;21.77;;;;;;;22.30;83.47;100952.66;7362292;19;20022;-63
2023/06/12 05:35:39;;;;;;;32.00;23.05;;;;;;;22.34;84.27;100957.34;7360662;19;20030;-62
2023/06/12 05:38:07;;;;;;;31.27;22.20;;;;;;;22.36;83.79;100954.41;7359927;19;20024;-63
2023/06/12 05:40:34;;;;;;;32.47;22.83;;;;;;;22.37;84.06;100950.69;7360818;19;20420;-62
2023/06/12 05:43:01;;;;;;;30.27;22.60;;;;;;;22.35;84.01;100956.28;7362715;19;20018;-62
2023/06/12 05:45:28;;;;;;;30.20;22.02;;;;;;;22.35;84.48;100955.47;7358084;19;20098;-62
2023/06/12 05:47:55;;;;;;;31.13;21.98;;;;;;;22.35;84.17;100950.13;7355544;19;20015;-62
2023/06/12 05:50:22;;;;;;;31.17;23.35;;;;;;;22.33;84.69;100955.69;7357170;19;20010;-63
2023/06/12 05:52:50;;;;;;;37.20;24.27;;;;;;;22.33;83.89;100952.19;7359756;19;20437;-63
2023/06/12 05:55:17;;;;;;;32.83;24.20;;;;;;;22.34;84.13;100951.97;7360803;19;20658;-63
2023/06/12 05:57:44;;;;;;;33.47;24.40;;;;;;;22.36;84.00;100935.63;7368712;19;20138;-61
2023/06/12 06:00:13;;;;;;;32.30;23.90;;;;;;;22.37;83.61;100948.81;7367253;19;20006;-64
2023/06/12 06:02:42;;;;;;;30.00;23.08;;;;;;;22.39;84.11;100951.28;7366603;19;21073;-64
2023/06/12 06:05:10;;;;;;;35.63;24.73;;;;;;;22.38;84.04;100961.19;7366292;19;20047;-62
2023/06/12 06:07:38;;;;;;;36.08;25.05;;;;;;;22.40;83.65;100964.44;7367229;19;20014;-62
2023/06/12 06:10:06;;;;;;;33.03;24.48;;;;;;;22.42;83.55;100967.75;7367025;19;20031;-63
2023/06/12 06:12:33;;;;;;;33.00;24.48;;;;;;;22.48;84.13;100979.44;7368145;19;20018;-62
2023/06/12 06:15:00;;;;;;;30.60;21.92;;;;;;;22.50;83.28;100980.81;7367487;19;20042;-61
2023/06/12 06:17:28;;;;;;;32.72;23.80;;;;;;;22.55;83.17;100986.31;7365782;19;20011;-62
2023/06/12 06:19:55;;;;;;;30.88;22.63;;;;;;;22.54;83.33;100978.53;7367884;19;20031;-62
2023/06/12 06:22:24;;;;;;;32.33;22.83;;;;;;;22.56;82.76;100984.47;7368436;19;20014;-62
2023/06/12 06:24:51;;;;;;;31.52;22.30;;;;;;;22.57;83.16;100984.25;7365708;19;20094;-62
2023/06/12 06:27:19;;;;;;;31.23;23.67;;;;;;;22.58;82.86;100982.38;7366933;19;20014;-62
2023/06/12 06:29:46;;;;;;;35.03;24.75;;;;;;;22.61;83.47;100976.53;7367096;19;20102;-61
2023/06/12 06:32:13;;;;;;;34.83;24.90;;;;;;;22.63;82.77;100989.75;7363691;19;20057;-63
2023/06/12 06:34:40;;;;;;;31.80;22.98;;;;;;;22.63;82.86;100971.78;7366116;19;20026;-61
2023/06/12 06:37:08;;;;;;;33.17;24.17;;;;;;;22.63;82.60;100979.00;7366830;19;20094;-63
2023/06/12 06:39:35;;;;;;;33.15;23.60;;;;;;;22.62;82.62;100983.56;7367887;19;20051;-63
2023/06/12 06:42:03;;;;;;;33.00;24.20;;;;;;;22.62;82.95;100988.91;7367409;19;20025;-62
2023/06/12 06:44:31;;;;;;;36.28;26.58;;;;;;;22.63;82.04;100979.00;7368395;19;20023;-62
2023/06/12 06:46:58;;;;;;;34.13;24.55;;;;;;;22.66;81.92;100978.53;7361978;19;20110;-62
2023/06/12 06:49:26;;;;;;;36.28;25.75;;;;;;;22.67;81.35;100980.19;7361359;19;20021;-62
2023/06/12 06:51:54;;;;;;;33.38;23.90;;;;;;;22.70;81.34;100977.88;7367017;19;20386;-63
2023/06/12 06:54:23;;;;;;;34.72;24.70;;;;;;;22.69;80.81;100968.19;7367316;19;20343;-63
2023/06/12 06:56:50;;;;;;;34.80;25.80;;;;;;;22.72;80.67;100974.97;7365297;19;20031;-62
2023/06/12 06:59:18;;;;;;;35.33;25.50;;;;;;;22.75;80.91;100980.72;7366034;19;20022;-62
2023/06/12 07:01:45;;;;;;;36.38;25.48;;;;;;;22.82;80.16;100980.59;7363213;19;20023;-62
2023/06/12 07:04:12;;;;;;;33.85;25.33;;;;;;;22.98;80.05;100979.94;7362499;19;20018;-63
2023/06/12 07:06:41;;;;;;;35.28;25.83;;;;;;;23.10;79.62;100988.84;7357987;19;20018;-62
2023/06/12 07:09:08;;;;;;;33.72;24.27;;;;;;;23.23;79.18;100993.19;7361039;19;20014;-62
2023/06/12 07:11:36;;;;;;;38.72;26.33;;;;;;;23.32;78.47;100986.41;7363272;19;20022;-62
2023/06/12 07:14:04;;;;;;;36.90;25.55;;;;;;;23.42;77.33;100986.66;7362992;19;21735;-63
2023/06/12 07:16:31;;;;;;;35.35;25.48;;;;;;;23.49;76.52;100990.06;7363429;19;20090;-62
2023/06/12 07:18:59;;;;;;;32.03;24.48;;;;;;;23.54;76.70;100992.06;7359079;19;20022;-62
2023/06/12 07:21:26;;;;;;;36.80;25.63;;;;;;;23.60;76.85;100983.88;7362988;19;20023;-62
2023/06/12 07:23:54;;;;;;;37.88;26.05;;;;;;;23.65;76.09;100986.69;7362334;19;20129;-63
2023/06/12 07:26:23;;;;;;;37.97;25.98;;;;;;;23.72;74.95;100991.94;7365506;19;20014;-62
2023/06/12 07:28:57;;;;;;;32.88;23.90;;;;;;;23.83;74.90;100991.09;7362261;19;20018;-62
2023/06/12 07:31:27;;;;;;;32.70;24.63;;;;;;;23.95;73.54;100996.47;7364648;19;20022;-63
2023/06/12 07:33:55;;;;;;;40.03;26.30;;;;;;;24.01;73.31;100993.66;7360695;19;20017;-63
2023/06/12 07:36:22;;;;;;;40.33;26.67;;;;;;;24.16;74.08;100985.91;7363365;19;20011;-62
2023/06/12 07:38:50;;;;;;;36.60;26.52;;;;;;;24.53;72.71;101005.19;7364216;19;20081;-63
2023/06/12 07:41:18;;;;;;;39.28;26.63;;;;;;;25.23;70.39;100995.97;7360688;19;20010;-62
2023/06/12 07:43:45;;;;;;;33.30;26.15;;;;;;;26.50;66.49;101001.22;7358698;19;20462;-62
2023/06/12 07:46:15;;;;;;;31.48;23.90;;;;;;;27.78;62.25;101012.88;7361043;19;20022;-63
2023/06/12 07:48:43;;;;;;;33.22;22.90;;;;;;;28.39;58.35;101008.59;7178017;19;3574786;-62
2023/06/12 07:51:10;;;;;;;31.90;23.42;;;;;;;28.40;60.41;101016.41;7365349;19;20385;-62
2023/06/12 07:53:37;;;;;;;29.25;22.05;;;;;;;28.36;59.04;101009.91;7362475;19;20050;-63
2023/06/12 07:56:06;;;;;;;27.33;21.75;;;;;;;28.28;58.88;100999.59;7365344;19;20014;-62
2023/06/12 07:58:35;;;;;;;33.60;24.58;;;;;;;28.04;59.05;100996.50;7364178;19;20014;-61
2023/06/12 08:01:04;;;;;;;32.58;24.45;;;;;;;27.73;60.44;100992.03;7364654;19;20023;-62
2023/06/12 08:03:38;;;;;;;31.63;22.98;;;;;;;27.42;60.19;100991.00;7363896;19;20018;-63
2023/06/12 08:06:09;;;;;;;29.67;23.35;;;;;;;27.21;60.09;100998.16;7363783;19;20025;-61
2023/06/12 08:08:46;;;;;;;30.42;24.00;;;;;;;27.00;61.28;100993.66;7363571;19;20014;-61
2023/06/12 08:11:14;;;;;;;31.48;23.10;;;;;;;26.70;61.90;101002.25;7364791;19;21090;-62
2023/06/12 08:13:41;;;;;;;32.75;21.02;;;;;;;26.44;63.24;100997.66;7364958;19;20463;-62
2023/06/12 08:16:09;;;;;;;24.27;18.08;;;;;;;26.29;64.07;101008.28;7364349;19;20022;-62
2023/06/12 08:18:37;;;;;;;22.02;16.77;;;;;;;26.36;63.79;101007.00;7361769;19;20053;-62
2023/06/12 08:21:04;;;;;;;26.15;17.60;;;;;;;26.51;64.06;101005.56;7363025;19;20014;-62
2023/06/12 08:23:31;;;;;;;23.65;16.88;;;;;;;26.43;63.12;101001.41;7357320;19;20022;-62
2023/06/12 08:25:58;;;;;;;22.02;15.90;;;;;;;26.45;63.27;101007.38;7362626;19;20010;-62
2023/06/12 08:28:26;;;;;;;19.20;13.73;;;;;;;26.67;63.42;101010.84;7363922;19;20471;-62
2023/06/12 08:30:57;;;;;;;19.23;14.52;;;;;;;27.02;62.93;101010.41;7359928;19;20021;-62
2023/06/12 08:33:25;;;;;;;18.92;14.05;;;;;;;27.22;61.21;101010.59;7366290;19;20034;-62
2023/06/12 08:35:52;;;;;;;18.10;13.77;;;;;;;27.45;60.58;101003.97;7361790;19;20045;-60
2023/06/12 08:38:19;;;;;;;18.45;14.43;;;;;;;27.52;59.94;101007.31;7364898;19;20052;-62
2023/06/12 08:40:47;;;;;;;19.02;14.77;;;;;;;27.52;60.98;101015.44;7362869;19;20014;-61
2023/06/12 08:43:15;;;;;;;19.85;15.10;;;;;;;27.51;60.78;101015.69;7362040;19;20364;-61
2023/06/12 08:45:47;;;;;;;21.40;17.35;;;;;;;27.48;60.57;101025.09;7358377;19;20011;-61
2023/06/12 08:48:22;;;;;;;23.67;18.35;;;;;;;27.30;61.13;101017.41;7359022;19;20014;-61
2023/06/12 08:50:52;;;;;;;23.65;16.60;;;;;;;27.13;61.51;101017.53;7361211;19;20856;-62
2023/06/12 08:53:20;;;;;;;25.95;18.55;;;;;;;26.96;62.42;101018.75;7362686;19;20773;-62
2023/06/12 08:55:50;;;;;;;27.65;19.00;;;;;;;26.81;62.78;101022.91;7360139;19;20059;-62
2023/06/12 08:58:17;;;;;;;22.85;16.52;;;;;;;26.69;63.86;101014.13;7363850;19;20014;-62
2023/06/12 09:00:45;;;;;;;28.23;18.90;;;;;;;26.70;63.78;101018.47;7359102;19;20018;-63
2023/06/12 09:03:13;;;;;;;24.67;18.30;;;;;;;26.64;64.38;101018.66;7359235;19;20058;-62
2023/06/12 09:05:42;;;;;;;22.80;17.58;;;;;;;26.60;64.37;101018.34;7359435;19;20010;-62
2023/06/12 09:08:10;;;;;;;28.13;16.95;;;;;;;26.67;64.90;101020.84;7360062;19;20594;-62
2023/06/12 09:10:38;;;;;;;30.50;17.65;;;;;;;26.69;63.81;101016.81;7359468;19;20023;-63
2023/06/12 09:13:09;;;;;;;30.65;17.25;;;;;;;26.57;63.04;101020.72;7361408;19;20021;-61
2023/06/12 09:15:38;;;;;;;24.52;13.65;;;;;;;26.43;63.12;101024.91;7361945;19;20130;-62
2023/06/12 09:18:11;;;;;;;25.70;13.57;;;;;;;26.34;63.29;101019.94;7358079;19;20014;-65
2023/06/12 09:20:39;;;;;;;15.57;11.25;;;;;;;26.33;63.21;101020.19;7361447;19;20750;-62
2023/06/12 09:23:11;;;;;;;14.85;11.40;;;;;;;26.31;62.70;101017.75;7361483;19;20014;-62
2023/06/12 09:25:41;;;;;;;15.32;10.52;;;;;;;26.31;62.88;101015.03;7358215;19;20044;-61
2023/06/12 09:28:25;;;;;;;17.70;10.77;;;;;;;26.31;63.37;101020.44;7361163;19;20021;-61
2023/06/12 09:30:54;;;;;;;18.88;10.68;;;;;;;26.33;63.12;101014.78;7358299;19;20352;-62
2023/06/12 09:33:27;;;;;;;16.33;10.20;;;;;;;26.30;62.58;101013.44;7361548;19;20022;-61
2023/06/12 09:35:55;;;;;;;23.77;11.35;;;;;;;26.29;62.82;101017.19;7359763;19;21661;-63
2023/06/12 09:38:29;;;;;;;55.78;14.35;;;;;;;26.28;62.99;101012.84;7360619;19;20006;-61
2023/06/12 09:40:57;;;;;;;33.63;13.63;;;;;;;26.20;63.50;101015.16;7360730;19;20022;-62
2023/06/12 09:43:26;;;;;;;27.38;14.40;;;;;;;26.15;63.80;101020.50;7361535;19;20689;-61
2023/06/12 09:45:55;;;;;;;17.00;10.10;;;;;;;26.14;64.35;101016.16;7357649;19;20015;-62
2023/06/12 09:48:22;;;;;;;14.52;10.32;;;;;;;26.14;64.27;101013.47;7357968;19;20828;-62
2023/06/12 09:50:51;;;;;;;17.17;10.95;;;;;;;26.23;64.27;101014.69;7357932;19;20067;-62
2023/06/12 09:53:21;;;;;;;97.55;20.27;;;;;;;26.32;63.75;101023.97;7359670;19;20078;-63
2023/06/12 09:55:51;;;;;;;27.10;11.15;;;;;;;26.41;63.17;101021.66;7358610;19;20025;-62
2023/06/12 09:58:20;;;;;;;19.60;10.57;;;;;;;26.51;62.36;101013.66;7360351;19;20059;-62
2023/06/12 10:00:48;;;;;;;36.22;13.75;;;;;;;26.60;62.45;101017.53;7357417;19;20344;-62
2023/06/12 10:03:19;;;;;;;27.38;11.52;;;;;;;26.67;62.59;101021.66;7357117;19;20022;-62
2023/06/12 10:05:50;;;;;;;15.20;8.25;;;;;;;26.76;62.26;101022.84;7357682;19;20026;-62
2023/06/12 10:08:18;;;;;;;14.00;9.57;;;;;;;26.86;61.31;101014.03;7358461;19;20015;-63
2023/06/12 10:10:48;;;;;;;12.80;9.05;;;;;;;26.89;60.73;101021.63;7357610;19;20047;-61
2023/06/12 10:13:16;;;;;;;12.63;8.90;;;;;;;26.94;59.67;101015.47;7358626;19;20018;-62
2023/06/12 10:15:46;;;;;;;12.40;8.15;;;;;;;26.96;60.73;101018.75;7357131;19;20093;-62
2023/06/12 10:18:16;;;;;;;15.73;10.90;;;;;;;26.96;60.31;101019.56;7356954;19;20015;-62
2023/06/12 10:20:46;;;;;;;15.13;10.75;;;;;;;27.07;59.94;101020.47;7359573;19;20002;-62
2023/06/12 10:23:14;;;;;;;12.57;9.57;;;;;;;27.10;60.13;101006.41;7358167;19;20854;-61
2023/06/12 10:25:41;;;;;;;52.15;15.55;;;;;;;27.14;60.33;101011.06;7356341;19;20011;-60
2023/06/12 10:28:11;;;;;;;26.60;10.38;;;;;;;27.21;59.81;101006.25;7355469;19;20014;-61
2023/06/12 10:30:38;;;;;;;9.55;6.43;;;;;;;27.29;59.50;101015.75;7357035;19;20018;-62
2023/06/12 10:33:08;;;;;;;11.70;7.22;;;;;;;27.38;58.44;101013.41;7357084;19;20147;-66
2023/06/12 10:35:36;;;;;;;10.25;5.90;;;;;;;27.41;58.94;101008.28;7355930;19;20018;-61
2023/06/12 10:38:03;;;;;;;16.92;7.00;;;;;;;27.41;58.06;101011.00;7358544;19;20024;-61
2023/06/12 10:40:31;;;;;;;10.55;6.28;;;;;;;27.45;58.37;101008.56;7360114;19;20018;-61
2023/06/12 10:43:14;;;;;;;8.65;5.65;;;;;;;27.54;58.60;101009.75;7368035;19;20526;-62
2023/06/12 10:45:56;;;;;;;7.95;6.32;;;;;;;27.57;57.43;101014.66;7366532;19;20014;-63
2023/06/12 10:48:23;;;;;;;9.95;6.45;;;;;;;27.57;57.16;101009.25;7362575;19;20546;-62
2023/06/12 10:50:54;;;;;;;11.52;6.57;;;;;;;27.60;57.32;101004.13;7363845;19;20019;-62
2023/06/12 10:53:24;;;;;;;17.60;8.70;;;;;;;27.63;57.74;101003.59;7364824;19;20130;-62
2023/06/12 10:55:56;;;;;;;7.63;6.43;;;;;;;27.66;57.26;101004.97;7363832;19;20019;-62
2023/06/12 10:58:25;;;;;;;9.68;6.28;;;;;;;27.72;57.16;101000.41;7365507;19;21050;-64
2023/06/12 11:00:53;;;;;;;10.48;7.03;;;;;;;27.76;57.60;101001.50;7364014;19;20019;-61
2023/06/12 11:03:25;;;;;;;8.25;6.38;;;;;;;27.89;55.90;100993.72;7363089;19;20018;-62
2023/06/12 11:05:58;;;;;;;21.88;8.43;;;;;;;27.86;56.37;101002.38;7364135;19;20041;-62
2023/06/12 11:08:27;;;;;;;17.98;7.43;;;;;;;27.89;56.77;101003.72;7363183;19;20443;-62
2023/06/12 11:10:55;;;;;;;9.18;6.40;;;;;;;27.87;56.51;101006.72;7364171;19;20443;-62
2023/06/12 11:13:24;;;;;;;8.82;5.93;;;;;;;27.91;57.06;101004.28;7363859;19;20874;-61
2023/06/12 11:15:52;;;;;;;8.65;5.63;;;;;;;27.95;56.36;101003.50;7360037;19;20022;-62